Time;durP1;ratioP1;P1;durP2;ratioP2;P2;SDS_P1;SDS_P2;PMS_P1;PMS_P2;Temp;Humidity;BMP_temperature;BMP_pressure;BME280_temperature;BME280_humidity;BME280_pressure;Samples;Min_cycle;Max_cycle;Signal;HPM_P1;HPM_P2
2021/09/14 00:01:59;;;;;;;6.85;4.00;;;11.90;99.90;;;;;;5073272;28;20059;-77
2021/09/14 00:04:25;;;;;;;7.93;3.50;;;11.80;99.90;;;;;;5072851;28;20063;-78
2021/09/14 00:06:52;;;;;;;7.70;4.38;;;11.80;99.90;;;;;;5073850;28;20342;-76
2021/09/14 00:09:18;;;;;;;8.75;4.30;;;12.10;99.90;;;;;;5073607;28;20052;-78
2021/09/14 00:11:44;;;;;;;4.65;3.95;;;11.80;99.90;;;;;;5072953;28;20453;-76
2021/09/14 00:14:10;;;;;;;7.80;4.25;;;11.80;99.90;;;;;;5074362;28;20061;-78
2021/09/14 00:16:36;;;;;;;5.60;3.75;;;11.80;99.90;;;;;;5074015;28;20056;-78
2021/09/14 00:19:02;;;;;;;6.18;4.20;;;12.00;99.90;;;;;;5072971;28;20056;-78
2021/09/14 00:21:29;;;;;;;7.40;4.63;;;11.80;99.90;;;;;;5055941;28;20052;-77
2021/09/14 00:23:55;;;;;;;16.45;4.15;;;11.80;99.90;;;;;;5055462;28;20053;-77
2021/09/14 00:26:21;;;;;;;8.52;3.75;;;11.70;99.90;;;;;;5072590;28;20052;-78
2021/09/14 00:28:47;;;;;;;7.10;3.90;;;11.80;99.90;;;;;;5072559;28;20055;-78
2021/09/14 00:31:13;;;;;;;8.35;4.70;;;11.80;99.90;;;;;;5073016;28;20330;-77
2021/09/14 00:33:39;;;;;;;7.68;3.90;;;11.70;99.90;;;;;;5074053;28;20048;-77
2021/09/14 00:36:06;;;;;;;6.03;3.58;;;11.70;99.90;;;;;;5073462;28;20052;-77
2021/09/14 00:38:32;;;;;;;12.63;4.13;;;11.70;99.90;;;;;;5073434;28;20612;-75
2021/09/14 00:40:58;;;;;;;6.30;3.65;;;11.80;99.90;;;;;;5073029;28;20075;-76
2021/09/14 00:43:24;;;;;;;6.85;4.30;;;11.60;99.90;;;;;;5071791;28;20040;-76
2021/09/14 00:45:51;;;;;;;9.45;4.65;;;11.60;99.90;;;;;;5073178;28;20059;-77
2021/09/14 00:48:17;;;;;;;7.43;4.22;;;11.90;99.90;;;;;;5072832;28;20064;-77
2021/09/14 00:50:43;;;;;;;10.32;5.38;;;11.60;99.90;;;;;;5072362;28;20056;-77
2021/09/14 00:53:09;;;;;;;9.07;4.22;;;11.60;99.90;;;;;;5071542;28;20048;-78
2021/09/14 00:55:36;;;;;;;9.80;4.30;;;11.60;99.90;;;;;;5038696;28;20045;-77
2021/09/14 00:58:02;;;;;;;6.82;3.25;;;11.70;99.90;;;;;;5055997;28;20330;-77
2021/09/14 01:00:28;;;;;;;6.90;4.38;;;;;;;;;;5071631;28;20056;-77
2021/09/14 01:02:55;;;;;;;4.47;3.45;;;11.50;99.90;;;;;;5054785;28;20055;-77
2021/09/14 01:05:21;;;;;;;6.25;4.07;;;11.50;99.90;;;;;;5072494;28;20053;-77
2021/09/14 01:07:48;;;;;;;8.02;4.20;;;11.50;99.90;;;;;;5072599;28;20516;-77
2021/09/14 01:10:14;;;;;;;4.78;3.80;;;11.50;99.90;;;;;;5072648;28;20052;-76
2021/09/14 01:12:41;;;;;;;7.07;3.55;;;11.50;99.90;;;;;;5072755;28;20631;-77
2021/09/14 01:15:08;;;;;;;6.60;4.18;;;11.50;99.90;;;;;;5072597;28;20048;-76
2021/09/14 01:17:34;;;;;;;6.63;3.78;;;;;;;;;;5072406;28;20060;-76
2021/09/14 01:20:01;;;;;;;8.55;4.05;;;;;;;;;;5072469;28;20444;-76
2021/09/14 01:22:28;;;;;;;8.43;3.20;;;;;;;;;;5054618;28;20052;-76
2021/09/14 01:24:54;;;;;;;5.47;3.97;;;;;;;;;;5072072;28;20057;-76
2021/09/14 01:27:21;;;;;;;7.93;4.25;;;;;;;;;;5057355;28;20441;-76
2021/09/14 01:32:32;;;;;;;6.68;3.90;;;;;;;;;;5077201;28;20052;-76
2021/09/14 01:35:19;;;;;;;9.25;4.78;;;11.40;99.90;;;;;;5058235;28;20354;-76
2021/09/14 01:37:45;;;;;;;8.57;3.25;;;11.40;99.90;;;;;;5058348;28;20437;-76
2021/09/14 01:40:12;;;;;;;7.63;3.70;;;11.40;99.90;;;;;;5076530;28;20354;-76
2021/09/14 01:42:38;;;;;;;4.82;3.10;;;11.40;99.90;;;;;;5058802;28;20052;-76
2021/09/14 01:45:06;;;;;;;6.85;3.15;;;11.80;99.90;;;;;;5075806;28;20048;-76
2021/09/14 01:47:32;;;;;;;5.28;3.50;;;11.40;99.90;;;;;;5075919;28;20059;-76
2021/09/14 01:49:58;;;;;;;5.88;3.95;;;11.70;99.90;;;;;;5058886;28;20048;-76
2021/09/14 01:52:27;;;;;;;6.07;3.35;;;11.40;99.90;;;;;;5076295;28;20334;-76
2021/09/14 01:54:53;;;;;;;4.40;2.97;;;11.50;99.90;;;;;;5058591;28;20048;-76
2021/09/14 01:57:24;;;;;;;7.90;3.78;;;11.40;99.90;;;;;;5076229;28;20059;-76
2021/09/14 01:59:53;;;;;;;7.60;3.90;;;11.30;99.90;;;;;;5076257;28;20056;-76
2021/09/14 02:05:20;;;;;;;7.50;3.85;;;11.40;99.90;;;;;;5076226;28;20060;-77
2021/09/14 02:30:15;;;;;;;11.68;5.05;;;;;;;;;;4958914;28;20473;-77
2021/09/14 02:44:03;;;;;;;6.90;3.72;;;;;;;;;;4974256;28;20055;-77
2021/09/14 03:00:14;;;;;;;6.15;3.85;;;12.30;99.90;;;;;;4977210;28;20046;-78
2021/09/14 03:02:43;;;;;;;8.40;4.25;;;12.30;99.90;;;;;;4977494;28;20050;-78
2021/09/14 03:05:10;;;;;;;10.55;4.18;;;12.30;99.90;;;;;;4993162;28;20050;-75
2021/09/14 03:07:36;;;;;;;9.80;4.95;;;12.50;99.90;;;;;;5073026;28;20059;-76
2021/09/14 03:10:03;;;;;;;9.32;4.53;;;;;;;;;;5040327;28;20056;-76
2021/09/14 03:12:29;;;;;;;9.15;3.80;;;12.60;99.90;;;;;;5056251;28;20319;-77
2021/09/14 03:14:55;;;;;;;10.75;4.80;;;12.60;99.90;;;;;;5074342;28;20055;-77
2021/09/14 03:17:21;;;;;;;8.90;4.40;;;12.50;99.90;;;;;;5073292;28;20059;-78
2021/09/14 03:19:48;;;;;;;10.88;4.82;;;;;;;;;;5073349;28;20426;-77
2021/09/14 03:22:14;;;;;;;8.15;4.50;;;12.70;99.90;;;;;;5073491;28;20059;-78
2021/09/14 03:24:40;;;;;;;10.10;4.65;;;12.80;99.90;;;;;;5073027;28;20048;-78
2021/09/14 03:27:06;;;;;;;10.43;4.68;;;12.70;99.90;;;;;;5073610;28;20063;-77
2021/09/14 03:29:32;;;;;;;7.95;4.60;;;12.70;99.90;;;;;;5074305;28;20056;-77
2021/09/14 03:31:59;;;;;;;10.88;4.50;;;12.70;99.90;;;;;;5073047;28;20053;-77
2021/09/14 03:34:25;;;;;;;13.80;5.80;;;12.80;99.90;;;;;;5073197;28;20055;-77
2021/09/14 03:36:51;;;;;;;10.45;4.75;;;12.80;99.90;;;;;;5074367;28;20052;-77
2021/09/14 03:39:17;;;;;;;7.90;4.47;;;12.90;99.90;;;;;;5072761;28;20048;-77
2021/09/14 03:41:43;;;;;;;8.95;4.70;;;12.80;99.90;;;;;;5074232;28;20787;-77
2021/09/14 03:44:09;;;;;;;9.38;5.03;;;12.80;99.90;;;;;;5074305;28;20070;-77
2021/09/14 03:46:35;;;;;;;11.70;5.10;;;12.90;99.90;;;;;;5072831;28;20056;-77
2021/09/14 03:49:02;;;;;;;11.23;4.60;;;13.20;99.90;;;;;;5073299;28;20055;-76
2021/09/14 03:51:29;;;;;;;8.43;4.22;;;12.90;99.90;;;;;;5056742;28;20049;-77
2021/09/14 03:53:56;;;;;;;10.18;4.95;;;13.00;99.90;;;;;;5056075;28;20052;-78
2021/09/14 03:56:22;;;;;;;9.57;5.13;;;13.00;99.90;;;;;;5076751;28;20051;-78
2021/09/14 03:58:48;;;;;;;8.95;4.18;;;13.00;99.90;;;;;;5083494;28;20051;-77
2021/09/14 04:01:14;;;;;;;10.07;5.70;;;13.10;99.90;;;;;;5074194;28;20044;-77
2021/09/14 04:03:43;;;;;;;7.78;4.20;;;13.00;99.90;;;;;;5072768;28;20048;-76
2021/09/14 04:08:58;;;;;;;5.22;3.50;;;13.20;99.90;;;;;;5073699;28;20052;-77
2021/09/14 04:11:24;;;;;;;10.57;5.28;;;13.10;99.90;;;;;;5073657;28;20047;-77
2021/09/14 04:13:51;;;;;;;10.73;4.75;;;13.30;99.90;;;;;;5073544;28;20044;-77
2021/09/14 04:16:19;;;;;;;12.27;5.55;;;13.20;99.90;;;;;;5055769;28;20338;-77
2021/09/14 04:18:45;;;;;;;13.18;5.15;;;13.20;99.90;;;;;;5073344;28;20045;-77
2021/09/14 04:21:12;;;;;;;7.82;4.20;;;13.30;99.90;;;;;;5055604;28;20075;-77
2021/09/14 04:23:38;;;;;;;8.40;4.30;;;13.40;99.90;;;;;;5073188;28;20052;-77
2021/09/14 04:26:05;;;;;;;9.38;5.03;;;13.40;99.90;;;;;;5073471;28;20060;-77
2021/09/14 04:28:31;;;;;;;10.30;5.45;;;13.20;99.90;;;;;;5055756;28;20179;-77
2021/09/14 04:30:58;;;;;;;9.50;5.03;;;13.30;99.90;;;;;;5073837;28;20044;-77
2021/09/14 04:33:24;;;;;;;6.22;4.30;;;13.20;99.90;;;;;;5072556;28;20049;-77
2021/09/14 04:35:51;;;;;;;9.20;5.85;;;13.30;99.90;;;;;;5073183;28;20052;-78
2021/09/14 04:38:17;;;;;;;12.15;4.80;;;13.30;99.90;;;;;;5054466;28;20048;-78
2021/09/14 04:40:43;;;;;;;8.15;3.95;;;13.30;99.90;;;;;;5073484;28;20071;-78
2021/09/14 04:43:09;;;;;;;7.28;3.78;;;13.30;99.90;;;;;;5071696;28;20061;-77
2021/09/14 04:45:36;;;;;;;10.45;4.97;;;13.30;99.90;;;;;;5072006;28;20053;-77
2021/09/14 04:48:02;;;;;;;8.55;4.68;;;13.20;99.90;;;;;;5072943;28;20052;-78
2021/09/14 04:50:28;;;;;;;10.50;4.55;;;13.20;99.90;;;;;;5055462;28;20520;-77
2021/09/14 04:52:54;;;;;;;10.05;4.72;;;13.20;99.90;;;;;;5072880;28;20051;-78
2021/09/14 04:55:20;;;;;;;8.43;4.20;;;13.30;99.90;;;;;;5073432;28;20052;-77
2021/09/14 04:57:46;;;;;;;8.70;4.10;;;13.20;99.90;;;;;;5071522;28;20051;-77
2021/09/14 05:00:14;;;;;;;8.85;3.70;;;13.20;99.90;;;;;;5071710;28;20059;-77
2021/09/14 05:02:41;;;;;;;11.38;4.88;;;13.10;99.90;;;;;;5058807;28;20052;-78
2021/09/14 05:05:07;;;;;;;7.88;4.38;;;13.10;99.90;;;;;;5076564;28;20064;-77
2021/09/14 05:07:33;;;;;;;10.18;5.22;;;13.00;99.90;;;;;;5059242;28;20087;-77
2021/09/14 05:09:59;;;;;;;10.05;4.63;;;13.00;99.90;;;;;;5075560;28;20053;-77
2021/09/14 05:12:26;;;;;;;8.57;4.72;;;13.00;99.90;;;;;;5075619;28;20049;-77
2021/09/14 05:14:52;;;;;;;5.38;3.22;;;13.00;99.90;;;;;;5076938;28;20052;-77
2021/09/14 05:17:18;;;;;;;8.82;3.45;;;;;;;;;;5077056;28;20051;-77
2021/09/14 05:19:46;;;;;;;11.73;5.40;;;13.00;99.90;;;;;;5076953;28;20052;-76
2021/09/14 05:22:12;;;;;;;13.02;4.95;;;12.80;99.90;;;;;;5075986;28;20059;-76
2021/09/14 05:24:38;;;;;;;8.68;4.32;;;12.90;99.90;;;;;;5074965;28;20059;-76
2021/09/14 05:27:05;;;;;;;6.32;3.47;;;13.10;99.90;;;;;;5077097;28;20056;-76
2021/09/14 05:29:31;;;;;;;10.95;4.53;;;12.70;99.90;;;;;;5076400;28;20044;-75
2021/09/14 05:31:57;;;;;;;11.20;4.90;;;12.70;99.90;;;;;;5058844;28;20429;-77
2021/09/14 05:34:24;;;;;;;8.93;3.90;;;12.90;99.90;;;;;;5076678;28;20350;-75
2021/09/14 05:36:51;;;;;;;7.38;4.38;;;12.70;99.90;;;;;;5077311;28;20446;-76
2021/09/14 05:39:17;;;;;;;9.20;4.13;;;12.60;99.90;;;;;;5058571;28;20339;-75
2021/09/14 05:41:43;;;;;;;11.65;5.13;;;12.70;99.90;;;;;;5074932;28;20349;-77
2021/09/14 05:44:09;;;;;;;9.18;4.70;;;12.80;99.90;;;;;;5076285;28;20628;-77
2021/09/14 05:46:37;;;;;;;10.18;4.68;;;12.80;99.90;;;;;;5076770;28;20058;-75
2021/09/14 05:49:04;;;;;;;7.95;4.55;;;12.80;99.90;;;;;;5059364;28;20382;-76
2021/09/14 05:51:30;;;;;;;7.95;5.07;;;12.90;99.90;;;;;;5076137;28;20055;-76
2021/09/14 05:53:56;;;;;;;12.00;4.95;;;12.90;99.90;;;;;;5076354;28;20044;-76
2021/09/14 05:56:23;;;;;;;12.73;5.57;;;13.00;99.90;;;;;;5076256;28;20414;-76
2021/09/14 05:58:49;;;;;;;8.65;3.83;;;13.00;99.90;;;;;;5058571;28;20040;-76
2021/09/14 06:01:15;;;;;;;7.40;4.38;;;13.00;99.90;;;;;;5076476;28;20052;-77
2021/09/14 06:03:41;;;;;;;15.40;5.40;;;13.00;99.90;;;;;;5075832;28;20543;-76
2021/09/14 06:06:08;;;;;;;18.77;6.07;;;13.10;99.90;;;;;;5075816;28;20044;-75
2021/09/14 06:08:34;;;;;;;10.23;6.00;;;13.10;99.90;;;;;;5075163;28;20059;-77
2021/09/14 06:11:01;;;;;;;9.98;4.50;;;13.20;99.90;;;;;;5075795;28;20059;-77
2021/09/14 06:13:27;;;;;;;7.07;4.18;;;13.30;99.90;;;;;;5074113;28;20051;-77
2021/09/14 06:15:53;;;;;;;10.27;4.43;;;13.30;99.90;;;;;;5075519;28;20344;-77
2021/09/14 06:18:19;;;;;;;10.80;5.18;;;13.40;99.90;;;;;;5075306;28;20056;-76
2021/09/14 06:20:46;;;;;;;10.15;5.20;;;13.30;99.90;;;;;;5074811;28;20052;-75
2021/09/14 06:23:12;;;;;;;10.50;5.25;;;13.50;99.90;;;;;;5075451;28;20075;-75
2021/09/14 06:25:38;;;;;;;6.93;3.58;;;13.60;99.90;;;;;;5057731;28;20048;-77
2021/09/14 06:28:05;;;;;;;11.75;5.10;;;13.30;99.90;;;;;;5075668;28;20067;-78
2021/09/14 06:30:31;;;;;;;10.88;4.28;;;13.70;99.90;;;;;;5057416;28;20060;-77
2021/09/14 06:32:58;;;;;;;8.45;4.28;;;13.80;99.90;;;;;;5056575;28;20044;-77
2021/09/14 06:35:24;;;;;;;11.90;4.75;;;13.80;99.90;;;;;;5056567;28;20044;-77
2021/09/14 06:37:50;;;;;;;9.15;3.90;;;;;;;;;;5074360;28;20055;-78
2021/09/14 06:40:17;;;;;;;11.02;4.50;;;;;;;;;;5056598;28;20067;-77
2021/09/14 06:42:43;;;;;;;15.07;5.60;;;;;;;;;;5074100;28;20056;-77
2021/09/14 06:45:10;;;;;;;8.90;4.50;;;14.20;99.90;;;;;;5056959;28;20055;-76
2021/09/14 06:47:36;;;;;;;8.65;4.40;;;14.20;99.90;;;;;;5074732;28;20052;-76
2021/09/14 06:50:04;;;;;;;11.27;4.53;;;14.20;99.90;;;;;;5056405;28;20051;-77
2021/09/14 06:52:31;;;;;;;13.90;5.65;;;14.40;99.90;;;;;;5074393;28;20061;-76
2021/09/14 06:54:57;;;;;;;6.70;4.03;;;14.20;99.90;;;;;;5074917;28;20052;-77
2021/09/14 06:57:23;;;;;;;10.82;5.07;;;14.50;99.90;;;;;;5057352;28;20051;-77
2021/09/14 06:59:49;;;;;;;12.48;5.13;;;14.60;99.90;;;;;;5074751;28;20063;-77
2021/09/14 07:02:15;;;;;;;10.23;5.15;;;;;;;;;;5073226;28;20457;-77
2021/09/14 07:04:42;;;;;;;8.52;4.15;;;14.80;99.90;;;;;;5074419;28;20056;-77
2021/09/14 07:07:08;;;;;;;8.65;3.70;;;14.90;99.90;;;;;;5039916;28;20055;-77
2021/09/14 07:09:36;;;;;;;11.90;4.20;;;15.00;99.90;;;;;;5072235;28;20061;-77
2021/09/14 07:12:03;;;;;;;10.00;4.22;;;15.10;99.90;;;;;;5073956;28;20342;-77
2021/09/14 07:14:29;;;;;;;11.40;3.80;;;15.30;99.90;;;;;;5073630;28;20049;-78
2021/09/14 07:16:55;;;;;;;9.55;3.20;;;15.40;99.90;;;;;;5073925;28;20041;-78
2021/09/14 07:19:21;;;;;;;7.82;3.58;;;15.50;99.90;;;;;;5073692;28;20044;-78
2021/09/14 07:21:47;;;;;;;8.63;3.67;;;15.60;99.90;;;;;;5074142;28;20052;-79
2021/09/14 07:24:13;;;;;;;17.30;3.72;;;15.70;99.90;;;;;;5072367;28;20044;-79
2021/09/14 07:26:40;;;;;;;7.07;2.75;;;15.90;99.90;;;;;;5073091;28;20067;-79
2021/09/14 07:29:06;;;;;;;7.95;3.22;;;16.00;99.90;;;;;;5073026;28;20060;-79
2021/09/14 07:31:33;;;;;;;7.18;2.97;;;16.40;99.90;;;;;;5057047;28;20052;-79
2021/09/14 07:33:59;;;;;;;11.02;3.55;;;16.40;99.90;;;;;;5074757;28;20045;-79
2021/09/14 07:36:26;;;;;;;10.98;3.50;;;16.40;99.90;;;;;;5074482;28;20052;-78
2021/09/14 07:38:52;;;;;;;7.88;3.58;;;16.50;99.90;;;;;;5074317;28;20056;-78
2021/09/14 07:41:18;;;;;;;10.30;3.40;;;16.60;99.90;;;;;;5072850;28;20056;-78
2021/09/14 07:43:44;;;;;;;10.00;4.03;;;16.70;99.90;;;;;;5073842;28;20049;-78
2021/09/14 07:46:10;;;;;;;11.95;3.75;;;16.80;99.90;;;;;;5074038;28;20052;-78
2021/09/14 07:48:37;;;;;;;7.75;4.10;;;16.70;99.90;;;;;;5048831;28;20057;-78
2021/09/14 07:51:03;;;;;;;9.45;3.78;;;17.10;99.90;;;;;;5054050;28;20052;-78
2021/09/14 07:53:30;;;;;;;6.80;4.00;;;17.20;99.90;;;;;;5073882;28;20049;-78
2021/09/14 07:55:56;;;;;;;10.15;5.03;;;17.30;99.90;;;;;;5073614;28;20056;-79
2021/09/14 07:58:22;;;;;;;10.95;4.80;;;17.30;99.90;;;;;;5073794;28;20052;-78
2021/09/14 08:00:48;;;;;;;8.10;4.05;;;17.50;99.90;;;;;;5073448;28;20062;-77
2021/09/14 08:03:14;;;;;;;11.85;5.13;;;17.60;99.90;;;;;;5073898;28;20047;-79
2021/09/14 08:05:41;;;;;;;10.27;5.82;;;17.70;99.90;;;;;;5072703;28;20453;-77
2021/09/14 08:08:07;;;;;;;9.38;5.43;;;17.80;99.90;;;;;;5072229;28;20055;-76
2021/09/14 08:10:34;;;;;;;8.95;4.97;;;17.90;99.90;;;;;;5055813;28;20048;-78
2021/09/14 08:13:00;;;;;;;8.82;3.75;;;18.10;99.90;;;;;;5073627;28;20426;-77
2021/09/14 08:15:26;;;;;;;13.02;5.63;;;18.20;99.90;;;;;;5072560;28;20060;-77
2021/09/14 08:17:52;;;;;;;13.95;6.10;;;18.40;99.90;;;;;;5073831;28;20444;-77
2021/09/14 08:20:19;;;;;;;11.80;5.70;;;18.50;99.90;;;;;;5073950;28;20071;-78
2021/09/14 08:22:45;;;;;;;8.77;5.15;;;18.70;99.90;;;;;;5073424;28;20059;-76
2021/09/14 08:25:11;;;;;;;11.55;5.43;;;18.90;99.90;;;;;;5073413;28;20055;-77
2021/09/14 08:27:37;;;;;;;9.30;6.65;;;19.10;99.90;;;;;;5055528;28;20059;-78
2021/09/14 08:30:05;;;;;;;12.93;7.78;;;19.30;99.90;;;;;;5072004;28;20040;-77
2021/09/14 08:32:31;;;;;;;12.32;6.95;;;19.20;99.90;;;;;;5073067;28;20452;-77
2021/09/14 08:34:57;;;;;;;11.88;6.30;;;19.30;99.90;;;;;;5070811;28;20472;-77
2021/09/14 08:37:23;;;;;;;12.00;7.03;;;19.40;99.90;;;;;;5071848;28;20071;-76
2021/09/14 08:39:49;;;;;;;12.82;7.50;;;19.40;99.80;;;;;;5072689;28;20430;-76
2021/09/14 08:42:16;;;;;;;12.50;6.65;;;19.40;99.40;;;;;;5054467;28;20311;-75
2021/09/14 08:44:43;;;;;;;15.05;8.25;;;19.60;99.80;;;;;;5072713;28;20059;-76
2021/09/14 08:47:09;;;;;;;9.93;7.07;;;19.40;99.30;;;;;;5055240;28;20075;-76
2021/09/14 08:49:35;;;;;;;14.65;6.85;;;19.50;99.40;;;;;;5071445;28;20052;-76
2021/09/14 08:52:03;;;;;;;13.48;6.85;;;19.70;99.30;;;;;;5072131;28;20057;-75
2021/09/14 08:54:29;;;;;;;9.90;6.35;;;19.80;99.00;;;;;;5072794;28;20053;-76
2021/09/14 08:56:55;;;;;;;10.27;5.75;;;19.90;98.90;;;;;;5072778;28;20084;-75
2021/09/14 08:59:33;;;;;;;10.95;6.25;;;20.10;98.90;;;;;;5054694;28;20052;-76
2021/09/14 09:02:02;;;;;;;12.63;6.43;;;20.20;98.30;;;;;;5055002;28;20064;-76
2021/09/14 09:04:28;;;;;;;10.88;6.25;;;20.30;98.50;;;;;;5054956;28;20063;-76
2021/09/14 09:06:55;;;;;;;11.52;6.35;;;20.50;98.10;;;;;;5072657;28;20075;-75
2021/09/14 09:09:22;;;;;;;12.32;6.50;;;20.80;98.10;;;;;;5072149;28;20060;-76
2021/09/14 09:12:05;;;;;;;16.38;7.78;;;20.80;97.30;;;;;;5072466;28;20060;-77
2021/09/14 09:14:35;;;;;;;11.97;7.37;;;20.80;97.10;;;;;;5072782;28;20048;-76
2021/09/14 09:17:13;;;;;;;12.15;7.47;;;20.80;97.00;;;;;;5072771;28;20338;-76
2021/09/14 09:20:00;;;;;;;11.18;6.93;;;21.00;97.40;;;;;;5073718;28;20053;-76
2021/09/14 09:22:27;;;;;;;11.63;6.15;;;21.10;97.10;;;;;;5072973;28;20051;-76
2021/09/14 09:24:54;;;;;;;12.57;9.57;;;21.50;97.40;;;;;;5072849;28;20047;-77
2021/09/14 09:27:24;;;;;;;14.20;7.75;;;21.50;96.10;;;;;;5071587;28;20040;-76
2021/09/14 09:30:08;;;;;;;12.88;9.50;;;21.90;96.70;;;;;;5072608;28;20063;-76
2021/09/14 09:32:45;;;;;;;14.98;9.10;;;22.00;95.50;;;;;;5072991;28;20048;-77
2021/09/14 09:35:13;;;;;;;12.23;8.65;;;22.20;96.10;;;;;;5072693;28;20045;-76
2021/09/14 09:37:39;;;;;;;14.90;7.55;;;22.30;95.60;;;;;;5054818;28;20342;-76
2021/09/14 09:40:21;;;;;;;12.27;8.65;;;22.20;95.00;;;;;;5072214;28;20064;-76
2021/09/14 09:42:48;;;;;;;12.80;8.32;;;22.40;94.90;;;;;;5072571;28;20069;-77
2021/09/14 09:45:18;;;;;;;13.68;8.02;;;22.20;94.40;;;;;;5072337;28;20048;-77
2021/09/14 09:47:47;;;;;;;11.63;8.07;;;22.40;94.30;;;;;;5074038;28;20045;-75
2021/09/14 09:50:13;;;;;;;11.68;8.38;;;22.40;94.30;;;;;;5058846;28;20453;-77
2021/09/14 09:52:43;;;;;;;11.35;8.05;;;22.60;94.20;;;;;;5058475;28;20044;-77
2021/09/14 09:55:11;;;;;;;15.52;8.60;;;22.90;94.40;;;;;;5076356;28;20056;-77
2021/09/14 09:57:37;;;;;;;12.85;7.90;;;23.40;94.40;;;;;;5076328;28;20434;-74
2021/09/14 10:00:11;;;;;;;10.52;8.23;;;23.50;93.20;;;;;;5075692;28;20044;-76
2021/09/14 10:02:52;;;;;;;11.40;8.25;;;23.30;92.80;;;;;;5058478;28;20053;-76
2021/09/14 10:05:21;;;;;;;9.05;6.82;;;23.50;92.40;;;;;;5075944;28;21158;-77
2021/09/14 10:07:48;;;;;;;11.98;7.35;;;23.40;92.80;;;;;;5076338;28;20063;-76
2021/09/14 10:10:15;;;;;;;12.00;6.65;;;23.70;92.70;;;;;;5076085;28;20059;-76
2021/09/14 10:12:41;;;;;;;10.73;6.53;;;23.90;92.70;;;;;;5041633;28;20048;-75
2021/09/14 10:15:09;;;;;;;9.52;5.82;;;23.80;92.00;;;;;;5059254;28;20055;-76
2021/09/14 10:18:08;;;;;;;11.30;8.10;;;23.80;91.90;;;;;;5058375;28;20051;-76
2021/09/14 10:20:52;;;;;;;11.95;7.40;;;23.10;90.30;;;;;;5035087;28;20041;-77
2021/09/14 10:23:23;;;;;;;8.80;7.30;;;22.80;91.80;;;;;;5016974;28;20192;-75
2021/09/14 10:26:05;;;;;;;11.35;7.57;;;22.80;91.70;;;;;;5033356;28;20042;-77
2021/09/14 10:28:42;;;;;;;13.25;7.03;;;22.80;91.70;;;;;;5033236;28;20072;-76
2021/09/14 10:31:28;;;;;;;10.52;6.80;;;22.80;92.00;;;;;;5016702;28;20064;-76
2021/09/14 10:34:15;;;;;;;10.23;7.55;;;22.70;93.10;;;;;;5034158;28;20184;-76
2021/09/14 10:36:57;;;;;;;11.07;7.65;;;22.80;92.00;;;;;;5033704;28;20060;-75
2021/09/14 10:39:25;;;;;;;15.93;7.82;;;22.90;92.80;;;;;;5016937;28;20060;-76
2021/09/14 10:41:52;;;;;;;12.10;8.00;;;22.90;92.30;;;;;;5033824;28;20059;-76
2021/09/14 10:44:29;;;;;;;10.77;7.10;;;23.30;92.80;;;;;;5016831;28;20096;-75
2021/09/14 10:47:17;;;;;;;11.35;8.32;;;23.80;93.10;;;;;;5033239;28;20057;-77
2021/09/14 10:49:50;;;;;;;13.55;8.05;;;24.40;91.50;;;;;;5032284;28;20053;-76
2021/09/14 10:52:42;;;;;;;14.38;7.28;;;24.80;91.10;;;;;;5032231;28;20045;-74
2021/09/14 10:55:11;;;;;;;7.55;6.20;;;25.30;89.30;;;;;;5034273;28;20065;-77
2021/09/14 10:57:39;;;;;;;11.90;8.35;;;25.70;90.00;;;;;;5075426;28;20780;-76
2021/09/14 11:00:11;;;;;;;14.20;8.30;;;26.00;86.70;;;;;;5074285;28;20051;-75
2021/09/14 11:02:38;;;;;;;9.13;6.50;;;25.90;85.80;;;;;;5057111;28;20056;-75
2021/09/14 11:05:06;;;;;;;11.93;7.20;;;26.80;86.50;;;;;;5075697;28;20290;-76
2021/09/14 11:07:56;;;;;;;10.77;8.07;;;27.10;84.30;;;;;;5075946;28;20056;-77
2021/09/14 11:10:22;;;;;;;11.80;6.88;;;27.30;75.80;;;;;;5056125;28;20052;-76
2021/09/14 11:12:48;;;;;;;11.13;6.05;;;27.60;80.10;;;;;;5074064;28;20063;-77
2021/09/14 11:15:14;;;;;;;12.40;6.25;;;28.10;80.00;;;;;;5073277;28;20045;-76
2021/09/14 11:17:41;;;;;;;10.27;7.47;;;28.50;81.20;;;;;;5073022;28;20445;-76
2021/09/14 11:20:18;;;;;;;12.30;6.07;;;28.40;76.20;;;;;;5072538;28;20056;-79
2021/09/14 11:22:48;;;;;;;7.85;5.45;;;28.70;75.50;;;;;;5057074;28;20055;-76
2021/09/14 11:25:23;;;;;;;11.05;5.45;;;28.80;73.70;;;;;;5077259;28;20049;-78
2021/09/14 11:27:59;;;;;;;10.25;6.15;;;28.90;71.50;;;;;;5066538;28;20067;-78
2021/09/14 11:30:28;;;;;;;11.52;6.03;;;29.30;71.60;;;;;;5081824;28;20036;-79
2021/09/14 11:32:55;;;;;;;8.38;5.47;;;29.60;68.90;;;;;;5073178;28;20048;-74
2021/09/14 11:35:22;;;;;;;12.63;6.03;;;29.90;66.00;;;;;;5073688;28;20052;-76
2021/09/14 11:38:08;;;;;;;11.95;6.40;;;30.00;63.60;;;;;;5073881;28;20055;-76
2021/09/14 11:41:07;;;;;;;6.93;4.55;;;30.30;63.70;;;;;;5073834;28;20354;-77
2021/09/14 11:43:35;;;;;;;8.77;5.47;;;31.10;64.10;;;;;;5031427;28;20050;-76
2021/09/14 11:46:17;;;;;;;8.38;5.53;;;31.30;58.40;;;;;;5032193;28;20050;-75
2021/09/14 11:48:58;;;;;;;9.35;4.80;;;31.20;59.30;;;;;;5031010;28;20056;-78
2021/09/14 11:51:29;;;;;;;8.35;5.25;;;32.10;58.80;;;;;;5015902;28;20509;-77
2021/09/14 11:53:55;;;;;;;8.82;5.43;;;32.20;55.30;;;;;;5032119;28;20052;-77
2021/09/14 11:56:26;;;;;;;10.18;5.05;;;31.50;54.40;;;;;;5032365;28;20037;-75
2021/09/14 11:58:52;;;;;;;8.90;5.50;;;32.30;53.70;;;;;;5032199;28;20049;-77
2021/09/14 12:01:20;;;;;;;9.23;4.57;;;32.60;54.10;;;;;;5032566;28;20057;-75
2021/09/14 12:03:51;;;;;;;10.80;5.97;;;33.00;53.50;;;;;;5015866;28;20057;-77
2021/09/14 12:06:37;;;;;;;13.55;4.50;;;33.60;51.40;;;;;;5015098;28;20334;-76
2021/09/14 12:09:10;;;;;;;9.05;4.82;;;33.70;49.20;;;;;;5032268;28;20049;-76
2021/09/14 12:11:41;;;;;;;9.15;5.20;;;33.30;51.90;;;;;;5031160;28;20072;-76
2021/09/14 12:14:09;;;;;;;8.27;4.82;;;33.60;48.80;;;;;;5031495;28;20435;-78
2021/09/14 12:16:42;;;;;;;7.25;4.07;;;34.10;49.90;;;;;;5030892;28;20469;-77
2021/09/14 12:19:10;;;;;;;7.05;5.72;;;34.40;48.60;;;;;;5035054;28;20057;-76
2021/09/14 12:21:36;;;;;;;8.60;5.13;;;34.00;46.80;;;;;;5054045;28;20053;-75
2021/09/14 12:24:02;;;;;;;7.22;4.22;;;34.10;47.50;;;;;;5053228;28;20057;-77
2021/09/14 12:26:37;;;;;;;6.85;4.38;;;33.90;47.30;;;;;;5053973;28;20048;-80
2021/09/14 12:29:04;;;;;;;6.63;3.28;;;34.20;48.40;;;;;;5054151;28;20068;-77
2021/09/14 12:31:30;;;;;;;24.52;4.50;;;35.20;48.20;;;;;;5036287;28;20091;-78
2021/09/14 12:33:57;;;;;;;4.97;2.95;;;35.10;47.70;;;;;;5053416;28;20052;-78
2021/09/14 12:36:24;;;;;;;7.05;4.20;;;35.80;47.80;;;;;;5053356;28;20061;-80
2021/09/14 12:38:50;;;;;;;6.05;3.50;;;36.00;45.40;;;;;;5035227;28;20055;-76
2021/09/14 12:41:18;;;;;;;9.40;3.08;;;35.70;45.50;;;;;;5053009;28;20052;-78
2021/09/14 12:43:49;;;;;;;8.15;5.32;;;35.30;43.00;;;;;;5052969;28;20053;-77
2021/09/14 12:46:16;;;;;;;7.38;4.68;;;35.30;43.60;;;;;;5053338;28;20056;-78
2021/09/14 12:48:43;;;;;;;8.45;5.00;;;35.60;44.60;;;;;;5053594;28;20053;-78
2021/09/14 12:51:10;;;;;;;9.32;4.22;;;35.80;44.40;;;;;;5053373;28;20056;-77
2021/09/14 12:53:36;;;;;;;7.65;3.85;;;36.30;44.30;;;;;;5052973;28;20045;-77
2021/09/14 12:56:03;;;;;;;8.05;4.85;;;36.10;44.30;;;;;;5053624;28;20442;-76
2021/09/14 12:58:30;;;;;;;10.65;4.55;;;36.50;43.60;;;;;;5053647;28;20064;-77
2021/09/14 13:00:56;;;;;;;14.45;5.88;;;36.00;43.50;;;;;;5053506;28;20541;-78
2021/09/14 13:03:22;;;;;;;6.05;3.53;;;35.90;42.10;;;;;;5053657;28;20052;-75
2021/09/14 13:05:48;;;;;;;11.38;5.32;;;35.80;43.80;;;;;;5053760;28;20049;-74
2021/09/14 13:08:15;;;;;;;7.80;4.95;;;35.80;42.70;;;;;;5053764;28;20049;-75
2021/09/14 13:10:41;;;;;;;6.95;4.57;;;35.70;42.10;;;;;;5036021;28;20056;-77
2021/09/14 13:16:10;;;;;;;10.63;5.80;;;35.30;43.90;;;;;;5052436;28;20045;-75
2021/09/14 13:18:38;;;;;;;10.83;5.60;;;34.50;42.40;;;;;;5052859;28;20049;-75
2021/09/14 13:21:05;;;;;;;9.27;5.32;;;34.00;44.00;;;;;;5053040;28;20057;-77
2021/09/14 13:23:32;;;;;;;10.73;6.07;;;34.40;44.20;;;;;;5055872;28;20532;-75
2021/09/14 13:25:59;;;;;;;11.15;6.28;;;33.70;43.60;;;;;;5056712;28;20059;-75
2021/09/14 13:28:25;;;;;;;12.57;5.97;;;33.20;45.00;;;;;;5056938;28;20053;-77
2021/09/14 13:30:51;;;;;;;12.05;5.68;;;33.60;45.70;;;;;;5057832;28;20045;-77
2021/09/14 13:33:17;;;;;;;7.45;4.63;;;33.50;45.10;;;;;;5056633;28;20056;-77
2021/09/14 13:35:44;;;;;;;10.15;5.88;;;33.40;46.90;;;;;;5055391;28;20049;-76
2021/09/14 13:38:10;;;;;;;9.38;5.97;;;33.60;44.70;;;;;;5056612;28;20056;-78
2021/09/14 13:40:39;;;;;;;11.18;5.72;;;32.90;44.50;;;;;;5056820;28;20454;-77
2021/09/14 13:43:05;;;;;;;9.77;5.40;;;32.40;47.10;;;;;;5056541;28;20266;-77
2021/09/14 13:48:24;;;;;;;7.03;4.57;;;32.90;45.80;;;;;;5056384;28;20052;-78
2021/09/14 13:50:51;;;;;;;11.05;5.53;;;32.50;45.80;;;;;;5055298;28;20065;-78
2021/09/14 13:53:18;;;;;;;61.28;24.13;;;32.10;46.30;;;;;;5057264;28;20049;-77
2021/09/14 13:55:45;;;;;;;23.15;8.43;;;31.40;47.70;;;;;;5039399;28;20041;-76